sensor_id;sensor_type;location;lat;lon;timestamp;pressure;altitude;pressure_sealevel;temperature;humidity
9035;BME280;4552;43.422;24.592;2023-10-31T03:04:28;99869.41;;;11.51;99.33
9035;BME280;4552;43.422;24.592;2023-10-31T03:06:55;99870.28;;;11.52;98.55
9035;BME280;4552;43.422;24.592;2023-10-31T03:09:22;99854.72;;;11.43;98.39
9035;BME280;4552;43.422;24.592;2023-10-31T03:11:49;99854.63;;;11.49;99.19
9035;BME280;4552;43.422;24.592;2023-10-31T03:14:16;99869.19;;;11.65;99.42
9035;BME280;4552;43.422;24.592;2023-10-31T03:16:43;99837.81;;;11.59;100.00
9035;BME280;4552;43.422;24.592;2023-10-31T03:19:10;99859.41;;;11.73;100.00
9035;BME280;4552;43.422;24.592;2023-10-31T03:21:39;99855.59;;;11.89;99.94
9035;BME280;4552;43.422;24.592;2023-10-31T03:24:06;99859.19;;;11.83;98.33
9035;BME280;4552;43.422;24.592;2023-10-31T03:26:33;99858.72;;;11.62;98.70
9035;BME280;4552;43.422;24.592;2023-10-31T03:29:00;99859.84;;;11.49;98.70
9035;BME280;4552;43.422;24.592;2023-10-31T03:31:27;99850.31;;;11.45;98.45
9035;BME280;4552;43.422;24.592;2023-10-31T03:33:54;99843.50;;;11.35;98.55
9035;BME280;4552;43.422;24.592;2023-10-31T03:36:21;99830.53;;;11.29;98.58
9035;BME280;4552;43.422;24.592;2023-10-31T03:38:49;99858.34;;;11.36;99.36
9035;BME280;4552;43.422;24.592;2023-10-31T03:41:16;99851.53;;;11.26;99.44
9035;BME280;4552;43.422;24.592;2023-10-31T05:06:05;99790.03;;;10.98;99.85
9035;BME280;4552;43.422;24.592;2023-10-31T05:08:32;99792.81;;;10.89;100.00
9035;BME280;4552;43.422;24.592;2023-10-31T05:10:59;99808.94;;;11.15;100.00
9035;BME280;4552;43.422;24.592;2023-10-31T05:13:26;99816.00;;;11.58;100.00
9035;BME280;4552;43.422;24.592;2023-10-31T05:15:53;99792.69;;;11.43;100.00
9035;BME280;4552;43.422;24.592;2023-10-31T05:18:20;99788.66;;;11.26;99.71
9035;BME280;4552;43.422;24.592;2023-10-31T05:20:48;99803.91;;;11.50;100.00
9035;BME280;4552;43.422;24.592;2023-10-31T05:23:17;99795.41;;;11.37;99.85
9035;BME280;4552;43.422;24.592;2023-10-31T05:25:44;99792.00;;;11.34;100.00
9035;BME280;4552;43.422;24.592;2023-10-31T05:28:11;99804.56;;;11.62;100.00
9035;BME280;4552;43.422;24.592;2023-10-31T05:30:38;99808.13;;;11.58;98.64
9035;BME280;4552;43.422;24.592;2023-10-31T05:33:05;99802.13;;;11.52;98.70
9035;BME280;4552;43.422;24.592;2023-10-31T05:35:33;99823.22;;;11.46;100.00
9035;BME280;4552;43.422;24.592;2023-10-31T05:38:00;99801.38;;;11.45;100.00
9035;BME280;4552;43.422;24.592;2023-10-31T05:43:42;99814.03;;;11.69;100.00
9035;BME280;4552;43.422;24.592;2023-10-31T05:46:09;99811.50;;;11.65;100.00
9035;BME280;4552;43.422;24.592;2023-10-31T05:54:22;99829.53;;;12.23;98.56
9035;BME280;4552;43.422;24.592;2023-10-31T05:56:51;99812.75;;;12.28;97.52
9035;BME280;4552;43.422;24.592;2023-10-31T05:59:21;99831.59;;;12.47;97.35
9035;BME280;4552;43.422;24.592;2023-10-31T06:01:51;99838.25;;;12.60;96.92
9035;BME280;4552;43.422;24.592;2023-10-31T06:04:18;99836.75;;;12.86;96.58
9035;BME280;4552;43.422;24.592;2023-10-31T06:06:56;99817.72;;;12.77;95.64
9035;BME280;4552;43.422;24.592;2023-10-31T06:09:24;99837.50;;;12.91;95.51
9035;BME280;4552;43.422;24.592;2023-10-31T06:11:54;99813.78;;;12.94;94.81
9035;BME280;4552;43.422;24.592;2023-10-31T06:35:03;99845.38;;;13.90;90.17
9035;BME280;4552;43.422;24.592;2023-10-31T06:37:31;99815.34;;;13.98;89.72
9035;BME280;4552;43.422;24.592;2023-10-31T06:39:58;99826.22;;;14.15;89.03
9035;BME280;4552;43.422;24.592;2023-10-31T06:42:25;99813.47;;;14.32;89.78
9035;BME280;4552;43.422;24.592;2023-10-31T06:44:55;99817.31;;;14.48;89.37
9035;BME280;4552;43.422;24.592;2023-10-31T06:47:23;99799.22;;;14.65;89.02
9035;BME280;4552;43.422;24.592;2023-10-31T06:49:50;99805.53;;;14.87;87.42
9035;BME280;4552;43.422;24.592;2023-10-31T06:52:19;99791.00;;;15.00;86.40
9035;BME280;4552;43.422;24.592;2023-10-31T06:54:46;99799.97;;;15.20;85.29
9035;BME280;4552;43.422;24.592;2023-10-31T06:57:13;99802.69;;;15.43;84.96
9035;BME280;4552;43.422;24.592;2023-10-31T06:59:40;99793.13;;;15.64;84.57
9035;BME280;4552;43.422;24.592;2023-10-31T07:02:08;99805.19;;;15.94;83.64
9035;BME280;4552;43.422;24.592;2023-10-31T07:04:35;99792.22;;;16.11;82.19
9035;BME280;4552;43.422;24.592;2023-10-31T07:07:03;99806.88;;;16.20;81.60
9035;BME280;4552;43.422;24.592;2023-10-31T07:09:32;99801.75;;;16.38;81.39
9035;BME280;4552;43.422;24.592;2023-10-31T07:11:59;99812.31;;;16.81;80.19
9035;BME280;4552;43.422;24.592;2023-10-31T07:14:25;99802.75;;;17.20;78.08
9035;BME280;4552;43.422;24.592;2023-10-31T07:16:52;99795.44;;;17.25;76.46
9035;BME280;4552;43.422;24.592;2023-10-31T07:19:20;99809.28;;;17.32;76.10
9035;BME280;4552;43.422;24.592;2023-10-31T07:21:46;99812.22;;;17.46;76.29
9035;BME280;4552;43.422;24.592;2023-10-31T07:24:14;99806.00;;;17.67;75.57
9035;BME280;4552;43.422;24.592;2023-10-31T07:26:42;99794.53;;;18.05;73.66
9035;BME280;4552;43.422;24.592;2023-10-31T07:29:10;99793.25;;;18.14;71.62
9035;BME280;4552;43.422;24.592;2023-10-31T07:31:37;99786.59;;;18.42;71.49
9035;BME280;4552;43.422;24.592;2023-10-31T07:34:04;99793.06;;;18.72;70.25
9035;BME280;4552;43.422;24.592;2023-10-31T07:36:31;99787.72;;;18.91;68.65
9035;BME280;4552;43.422;24.592;2023-10-31T07:39:00;99795.63;;;18.74;67.29
9035;BME280;4552;43.422;24.592;2023-10-31T07:41:28;99791.72;;;18.64;68.30
9035;BME280;4552;43.422;24.592;2023-10-31T07:43:56;99792.16;;;18.73;68.45
9035;BME280;4552;43.422;24.592;2023-10-31T07:46:23;99783.25;;;18.74;66.92
9035;BME280;4552;43.422;24.592;2023-10-31T07:48:50;99776.31;;;18.72;66.04
9035;BME280;4552;43.422;24.592;2023-10-31T07:51:17;99790.25;;;18.75;65.79
9035;BME280;4552;43.422;24.592;2023-10-31T07:53:46;99765.13;;;18.65;65.71
9035;BME280;4552;43.422;24.592;2023-10-31T07:56:17;99782.38;;;18.74;66.66
9035;BME280;4552;43.422;24.592;2023-10-31T07:58:48;99763.88;;;18.72;65.88
9035;BME280;4552;43.422;24.592;2023-10-31T08:01:18;99775.84;;;18.81;65.08
9035;BME280;4552;43.422;24.592;2023-10-31T08:03:45;99755.47;;;18.81;64.88
9035;BME280;4552;43.422;24.592;2023-10-31T08:06:13;99754.03;;;18.93;64.55
9035;BME280;4552;43.422;24.592;2023-10-31T08:08:41;99750.03;;;19.02;63.84
9035;BME280;4552;43.422;24.592;2023-10-31T08:11:08;99745.50;;;19.21;62.55
9035;BME280;4552;43.422;24.592;2023-10-31T08:13:36;99740.44;;;19.16;62.31
9035;BME280;4552;43.422;24.592;2023-10-31T08:16:04;99746.81;;;19.12;62.32
9035;BME280;4552;43.422;24.592;2023-10-31T08:18:34;99724.53;;;19.16;61.53
9035;BME280;4552;43.422;24.592;2023-10-31T08:21:02;99734.94;;;19.53;60.98
9035;BME280;4552;43.422;24.592;2023-10-31T08:23:29;99717.41;;;19.66;60.06
9035;BME280;4552;43.422;24.592;2023-10-31T08:25:57;99722.69;;;19.83;59.59
9035;BME280;4552;43.422;24.592;2023-10-31T08:28:24;99726.94;;;20.34;58.77
9035;BME280;4552;43.422;24.592;2023-10-31T09:09:53;99630.88;;;23.01;48.55
9035;BME280;4552;43.422;24.592;2023-10-31T09:12:20;99639.97;;;23.11;48.28
9035;BME280;4552;43.422;24.592;2023-10-31T09:14:47;99622.22;;;23.22;47.56
9035;BME280;4552;43.422;24.592;2023-10-31T09:17:14;99613.91;;;23.39;46.64
9035;BME280;4552;43.422;24.592;2023-10-31T09:19:42;99622.22;;;23.60;46.35
9035;BME280;4552;43.422;24.592;2023-10-31T09:22:09;99639.19;;;23.71;45.98
9035;BME280;4552;43.422;24.592;2023-10-31T09:24:36;99643.09;;;23.91;45.23
9035;BME280;4552;43.422;24.592;2023-10-31T09:27:06;99640.94;;;24.09;44.49
9035;BME280;4552;43.422;24.592;2023-10-31T09:29:33;99626.66;;;24.21;43.95
9035;BME280;4552;43.422;24.592;2023-10-31T09:32:00;99621.00;;;24.36;43.65
9035;BME280;4552;43.422;24.592;2023-10-31T09:34:27;99619.47;;;24.45;42.65
9035;BME280;4552;43.422;24.592;2023-10-31T09:37:07;99618.25;;;24.49;42.04
9035;BME280;4552;43.422;24.592;2023-10-31T09:39:40;99630.78;;;24.72;41.70
9035;BME280;4552;43.422;24.592;2023-10-31T09:42:09;99623.50;;;24.74;41.62
9035;BME280;4552;43.422;24.592;2023-10-31T09:44:36;99608.44;;;24.95;40.39
9035;BME280;4552;43.422;24.592;2023-10-31T09:47:03;99597.75;;;25.06;40.58
9035;BME280;4552;43.422;24.592;2023-10-31T09:49:32;99609.09;;;25.20;39.83
9035;BME280;4552;43.422;24.592;2023-10-31T09:52:01;99590.69;;;25.27;38.62
9035;BME280;4552;43.422;24.592;2023-10-31T09:54:29;99583.91;;;25.34;38.61
9035;BME280;4552;43.422;24.592;2023-10-31T09:57:04;99588.31;;;25.35;39.86
9035;BME280;4552;43.422;24.592;2023-10-31T09:59:37;99575.50;;;25.27;39.67
9035;BME280;4552;43.422;24.592;2023-10-31T10:02:04;99576.94;;;25.31;39.44
9035;BME280;4552;43.422;24.592;2023-10-31T10:04:31;99588.78;;;25.51;40.31
9035;BME280;4552;43.422;24.592;2023-10-31T10:07:01;99577.22;;;25.51;39.47
9035;BME280;4552;43.422;24.592;2023-10-31T10:48:36;99517.91;;;25.76;38.76
9035;BME280;4552;43.422;24.592;2023-10-31T10:51:11;99507.38;;;25.95;38.41
9035;BME280;4552;43.422;24.592;2023-10-31T10:53:48;99504.09;;;26.02;37.48
9035;BME280;4552;43.422;24.592;2023-10-31T10:56:20;99508.84;;;25.99;37.81
9035;BME280;4552;43.422;24.592;2023-10-31T10:58:51;99505.59;;;25.84;38.10
9035;BME280;4552;43.422;24.592;2023-10-31T11:01:19;99492.88;;;25.86;38.03
9035;BME280;4552;43.422;24.592;2023-10-31T11:03:49;99486.19;;;25.92;37.61
9035;BME280;4552;43.422;24.592;2023-10-31T11:06:17;99489.16;;;26.09;37.09
9035;BME280;4552;43.422;24.592;2023-10-31T11:08:45;99491.16;;;26.07;37.42
9035;BME280;4552;43.422;24.592;2023-10-31T11:11:13;99474.22;;;25.85;37.61
9035;BME280;4552;43.422;24.592;2023-10-31T11:13:43;99479.03;;;25.81;37.74
9035;BME280;4552;43.422;24.592;2023-10-31T11:18:57;99456.16;;;25.98;37.38
9035;BME280;4552;43.422;24.592;2023-10-31T11:21:24;99449.19;;;25.95;36.59
9035;BME280;4552;43.422;24.592;2023-10-31T11:23:57;99455.13;;;26.30;36.56
9035;BME280;4552;43.422;24.592;2023-10-31T11:26:25;99455.91;;;26.21;36.90
9035;BME280;4552;43.422;24.592;2023-10-31T11:29:02;99444.66;;;26.27;36.25
9035;BME280;4552;43.422;24.592;2023-10-31T11:31:30;99442.09;;;26.26;36.31
9035;BME280;4552;43.422;24.592;2023-10-31T11:34:00;99433.66;;;26.30;36.44
9035;BME280;4552;43.422;24.592;2023-10-31T11:36:30;99443.84;;;26.57;36.61
9035;BME280;4552;43.422;24.592;2023-10-31T11:39:10;99431.72;;;26.62;34.12
9035;BME280;4552;43.422;24.592;2023-10-31T11:41:40;99405.56;;;26.85;33.82
9035;BME280;4552;43.422;24.592;2023-10-31T11:54:46;99399.78;;;26.89;34.02
9035;BME280;4552;43.422;24.592;2023-10-31T11:57:48;99400.09;;;26.96;34.15
9035;BME280;4552;43.422;24.592;2023-10-31T12:00:21;99391.22;;;26.65;33.96
9035;BME280;4552;43.422;24.592;2023-10-31T12:02:59;99386.00;;;26.64;33.66
9035;BME280;4552;43.422;24.592;2023-10-31T12:05:27;99379.22;;;26.69;33.43
9035;BME280;4552;43.422;24.592;2023-10-31T12:07:56;99392.19;;;26.64;34.00
9035;BME280;4552;43.422;24.592;2023-10-31T12:10:37;99374.97;;;26.76;33.41
9035;BME280;4552;43.422;24.592;2023-10-31T12:13:13;99361.81;;;26.64;33.21
9035;BME280;4552;43.422;24.592;2023-10-31T12:25:46;99352.03;;;27.12;32.60
9035;BME280;4552;43.422;24.592;2023-10-31T12:28:18;99362.78;;;27.12;32.66
9035;BME280;4552;43.422;24.592;2023-10-31T12:30:46;99353.22;;;27.29;32.12
9035;BME280;4552;43.422;24.592;2023-10-31T12:33:13;99348.69;;;27.58;32.17
9035;BME280;4552;43.422;24.592;2023-10-31T12:35:40;99348.69;;;27.58;31.87
9035;BME280;4552;43.422;24.592;2023-10-31T12:38:10;99340.34;;;27.51;31.74
9035;BME280;4552;43.422;24.592;2023-10-31T12:40:37;99329.72;;;27.78;30.86
9035;BME280;4552;43.422;24.592;2023-10-31T12:43:05;99319.81;;;27.60;30.63
9035;BME280;4552;43.422;24.592;2023-10-31T13:03:50;99311.00;;;27.96;31.39
9035;BME280;4552;43.422;24.592;2023-10-31T13:06:18;99293.16;;;27.95;31.45
9035;BME280;4552;43.422;24.592;2023-10-31T13:08:45;99292.88;;;27.98;30.29
9035;BME280;4552;43.422;24.592;2023-10-31T13:11:13;99299.66;;;28.02;30.68
9035;BME280;4552;43.422;24.592;2023-10-31T13:13:40;99291.75;;;27.72;31.61
9035;BME280;4552;43.422;24.592;2023-10-31T13:16:07;99303.81;;;27.68;31.24
9035;BME280;4552;43.422;24.592;2023-10-31T13:18:35;99307.47;;;27.86;32.07
9035;BME280;4552;43.422;24.592;2023-10-31T13:21:04;99301.66;;;27.81;31.49
9035;BME280;4552;43.422;24.592;2023-10-31T13:23:31;99290.09;;;27.61;32.36
9035;BME280;4552;43.422;24.592;2023-10-31T13:25:59;99296.59;;;27.59;32.89
9035;BME280;4552;43.422;24.592;2023-10-31T13:28:26;99296.72;;;27.67;32.36
9035;BME280;4552;43.422;24.592;2023-10-31T13:30:54;99296.03;;;27.55;32.30
9035;BME280;4552;43.422;24.592;2023-10-31T13:33:21;99286.44;;;27.34;32.27
9035;BME280;4552;43.422;24.592;2023-10-31T13:35:48;99306.09;;;27.34;32.48
9035;BME280;4552;43.422;24.592;2023-10-31T13:38:17;99300.56;;;27.45;32.40
9035;BME280;4552;43.422;24.592;2023-10-31T13:40:44;99296.31;;;27.14;32.36
9035;BME280;4552;43.422;24.592;2023-10-31T13:43:11;99308.38;;;27.29;32.97
9035;BME280;4552;43.422;24.592;2023-10-31T13:45:38;99300.88;;;27.33;32.61
9035;BME280;4552;43.422;24.592;2023-10-31T13:48:05;99300.25;;;27.20;32.70
9035;BME280;4552;43.422;24.592;2023-10-31T13:50:32;99304.50;;;27.03;33.42
9035;BME280;4552;43.422;24.592;2023-10-31T13:53:00;99294.00;;;26.90;32.65
9035;BME280;4552;43.422;24.592;2023-10-31T13:55:30;99290.22;;;27.41;32.45
9035;BME280;4552;43.422;24.592;2023-10-31T13:57:58;99290.66;;;27.17;32.22
9035;BME280;4552;43.422;24.592;2023-10-31T14:00:25;99280.72;;;26.98;32.59
9035;BME280;4552;43.422;24.592;2023-10-31T14:02:52;99269.25;;;26.96;33.15
9035;BME280;4552;43.422;24.592;2023-10-31T14:05:19;99273.09;;;26.94;33.47
9035;BME280;4552;43.422;24.592;2023-10-31T14:07:46;99273.63;;;26.78;33.08
9035;BME280;4552;43.422;24.592;2023-10-31T14:10:14;99267.69;;;26.65;33.43
9035;BME280;4552;43.422;24.592;2023-10-31T16:27:43;99248.84;;;21.58;43.08
9035;BME280;4552;43.422;24.592;2023-10-31T16:30:12;99255.78;;;21.60;42.76
9035;BME280;4552;43.422;24.592;2023-10-31T16:32:39;99256.63;;;21.61;43.30
9035;BME280;4552;43.422;24.592;2023-10-31T16:35:07;99249.66;;;21.46;43.02
9035;BME280;4552;43.422;24.592;2023-10-31T16:37:34;99259.59;;;21.44;43.10
9035;BME280;4552;43.422;24.592;2023-10-31T16:40:01;99245.84;;;21.37;43.96
9035;BME280;4552;43.422;24.592;2023-10-31T16:42:28;99255.63;;;21.37;44.49
9035;BME280;4552;43.422;24.592;2023-10-31T16:55:35;99247.59;;;20.99;46.07
9035;BME280;4552;43.422;24.592;2023-10-31T16:58:02;99238.09;;;20.69;46.38
9035;BME280;4552;43.422;24.592;2023-10-31T17:00:35;99244.88;;;20.60;46.53
9035;BME280;4552;43.422;24.592;2023-10-31T17:03:02;99250.53;;;20.41;46.76
9035;BME280;4552;43.422;24.592;2023-10-31T17:05:29;99242.97;;;20.21;47.44
9035;BME280;4552;43.422;24.592;2023-10-31T17:07:56;99260.44;;;20.25;47.06
9035;BME280;4552;43.422;24.592;2023-10-31T17:10:23;99256.66;;;20.15;47.65
9035;BME280;4552;43.422;24.592;2023-10-31T17:12:51;99248.97;;;20.25;47.58
9035;BME280;4552;43.422;24.592;2023-10-31T17:15:19;99264.91;;;20.25;46.60
9035;BME280;4552;43.422;24.592;2023-10-31T17:17:46;99260.72;;;20.21;46.85
9035;BME280;4552;43.422;24.592;2023-10-31T17:20:13;99255.97;;;19.98;47.41
9035;BME280;4552;43.422;24.592;2023-10-31T17:22:40;99256.72;;;19.86;47.98
9035;BME280;4552;43.422;24.592;2023-10-31T17:25:07;99249.06;;;19.95;47.58
9035;BME280;4552;43.422;24.592;2023-10-31T17:27:34;99244.59;;;19.82;48.43
9035;BME280;4552;43.422;24.592;2023-10-31T17:30:03;99250.19;;;19.77;47.89
9035;BME280;4552;43.422;24.592;2023-10-31T17:32:31;99256.47;;;19.62;47.93
9035;BME280;4552;43.422;24.592;2023-10-31T17:34:58;99265.16;;;19.64;48.24
9035;BME280;4552;43.422;24.592;2023-10-31T17:37:25;99259.66;;;19.67;48.70
9035;BME280;4552;43.422;24.592;2023-10-31T17:39:52;99258.34;;;19.60;49.27
9035;BME280;4552;43.422;24.592;2023-10-31T17:42:19;99237.06;;;19.32;48.99
9035;BME280;4552;43.422;24.592;2023-10-31T17:44:53;99253.59;;;19.51;48.89
9035;BME280;4552;43.422;24.592;2023-10-31T17:47:22;99258.63;;;19.56;49.08
9035;BME280;4552;43.422;24.592;2023-10-31T17:49:49;99244.59;;;19.54;49.38
9035;BME280;4552;43.422;24.592;2023-10-31T17:52:16;99249.72;;;19.57;49.71
9035;BME280;4552;43.422;24.592;2023-10-31T17:54:43;99236.69;;;19.38;50.08
9035;BME280;4552;43.422;24.592;2023-10-31T20:11:20;99229.19;;;19.31;52.84
9035;BME280;4552;43.422;24.592;2023-10-31T20:13:47;99223.53;;;19.21;53.28
9035;BME280;4552;43.422;24.592;2023-10-31T20:16:15;99231.03;;;19.30;53.84
9035;BME280;4552;43.422;24.592;2023-10-31T20:18:43;99232.38;;;19.22;54.91
9035;BME280;4552;43.422;24.592;2023-10-31T20:21:10;99231.22;;;19.12;54.15
9035;BME280;4552;43.422;24.592;2023-10-31T20:23:37;99229.41;;;18.98;53.97
9035;BME280;4552;43.422;24.592;2023-10-31T20:26:06;99229.41;;;18.98;54.21
9035;BME280;4552;43.422;24.592;2023-10-31T20:28:36;99215.31;;;19.12;54.72
9035;BME280;4552;43.422;24.592;2023-10-31T21:05:04;99234.44;;;18.57;56.39
9035;BME280;4552;43.422;24.592;2023-10-31T21:07:31;99229.63;;;18.64;56.67
9035;BME280;4552;43.422;24.592;2023-10-31T21:09:58;99247.59;;;18.59;56.89
9035;BME280;4552;43.422;24.592;2023-10-31T21:12:25;99238.78;;;18.58;56.93
9035;BME280;4552;43.422;24.592;2023-10-31T21:14:52;99248.91;;;18.81;53.32
9035;BME280;4552;43.422;24.592;2023-10-31T21:17:19;99249.47;;;18.57;54.12
9035;BME280;4552;43.422;24.592;2023-10-31T21:19:46;99253.38;;;18.19;55.39
9035;BME280;4552;43.422;24.592;2023-10-31T21:22:14;99270.16;;;18.19;55.18
9035;BME280;4552;43.422;24.592;2023-10-31T21:24:42;99261.94;;;18.24;54.90
9035;BME280;4552;43.422;24.592;2023-10-31T21:27:09;99261.13;;;18.39;54.58
9035;BME280;4552;43.422;24.592;2023-10-31T21:29:40;99260.41;;;18.82;55.74
9035;BME280;4552;43.422;24.592;2023-10-31T22:32:18;99293.84;;;17.90;79.49
9035;BME280;4552;43.422;24.592;2023-10-31T22:34:45;99295.31;;;17.95;80.07
9035;BME280;4552;43.422;24.592;2023-10-31T22:37:12;99299.31;;;17.87;83.48
9035;BME280;4552;43.422;24.592;2023-10-31T22:39:39;99305.84;;;17.97;83.52
9035;BME280;4552;43.422;24.592;2023-10-31T22:42:06;99310.81;;;18.03;82.36
9035;BME280;4552;43.422;24.592;2023-10-31T22:44:35;99296.63;;;18.04;80.64
9035;BME280;4552;43.422;24.592;2023-10-31T22:47:02;99303.47;;;18.23;75.92
9035;BME280;4552;43.422;24.592;2023-10-31T22:49:30;99304.41;;;18.22;72.60
9035;BME280;4552;43.422;24.592;2023-10-31T22:51:57;99299.47;;;18.16;69.06
9035;BME280;4552;43.422;24.592;2023-10-31T22:54:24;99332.88;;;18.19;65.76
9035;BME280;4552;43.422;24.592;2023-10-31T22:56:51;99372.44;;;18.06;62.77
9035;BME280;4552;43.422;24.592;2023-10-31T22:59:18;99387.69;;;18.01;62.62
9035;BME280;4552;43.422;24.592;2023-10-31T23:01:45;99392.13;;;18.01;64.68
9035;BME280;4552;43.422;24.592;2023-10-31T23:04:12;99386.66;;;18.04;69.18
9035;BME280;4552;43.422;24.592;2023-10-31T23:06:41;99373.50;;;18.02;69.90
9035;BME280;4552;43.422;24.592;2023-10-31T23:09:08;99381.75;;;18.13;71.49
9035;BME280;4552;43.422;24.592;2023-10-31T23:11:35;99395.25;;;18.09;74.25
9035;BME280;4552;43.422;24.592;2023-10-31T23:14:02;99398.84;;;18.08;75.22
9035;BME280;4552;43.422;24.592;2023-10-31T23:16:30;99386.34;;;18.10;76.41
9035;BME280;4552;43.422;24.592;2023-10-31T23:18:56;99395.97;;;17.95;77.38
9035;BME280;4552;43.422;24.592;2023-10-31T23:21:23;99416.44;;;17.92;78.48
9035;BME280;4552;43.422;24.592;2023-10-31T23:23:52;99433.03;;;17.95;79.14
9035;BME280;4552;43.422;24.592;2023-10-31T23:26:19;99425.66;;;18.02;78.33
9035;BME280;4552;43.422;24.592;2023-10-31T23:28:46;99436.66;;;18.10;78.04
9035;BME280;4552;43.422;24.592;2023-10-31T23:31:13;99434.25;;;18.22;77.51
9035;BME280;4552;43.422;24.592;2023-10-31T23:33:39;99426.53;;;18.18;77.86
9035;BME280;4552;43.422;24.592;2023-10-31T23:36:07;99427.81;;;18.11;78.52
9035;BME280;4552;43.422;24.592;2023-10-31T23:38:34;99436.97;;;18.21;78.57
9035;BME280;4552;43.422;24.592;2023-10-31T23:41:03;99445.41;;;18.12;78.20
9035;BME280;4552;43.422;24.592;2023-10-31T23:43:30;99426.69;;;18.15;78.94
9035;BME280;4552;43.422;24.592;2023-10-31T23:45:57;99450.31;;;18.19;78.28
9035;BME280;4552;43.422;24.592;2023-10-31T23:48:24;99453.34;;;18.12;78.58
9035;BME280;4552;43.422;24.592;2023-10-31T23:50:51;99473.16;;;18.05;78.32
